Chesterfield, MO

6:48 PM CST on February 12, 2016 (GMT -0600)
Spirit Of Saint Louis | | Change Station
CLOSE
Current Station
Airport
Location: Spirit of St Louis,
Elevation: 463 ft
Nearby Weather Stations

Elev 463 ft 38.66 °N, 90.66 °W | Updated 54 minutes ago

Clear
Clear
28 °F
Feels Like 19 °F
N
9
Wind Variable Wind from NW

Today
High -- | Low -- °F
--% Chance of Precip.
Yesterday
High -- | Low -- °F
Precip. -- in
Pressure 30.46 in
Visibility 10.0 miles
Clouds Clear
Windchill 19 °F
Dew Point 13 °F
Humidity 53%
Rainfall 0.00 in
Snow Depth Not available.
6:57 AM 5:36 PM
Waxing Crescent, 25% visible
METAR KSUS 122354Z 32008KT 10SM CLR M02/M11 A3042 RMK AO2 SLP313 T10221106 10017 21022 51029
Pressure 30.46 in
Visibility 10.0 miles
Clouds Clear
Windchill 19 °F
Dew Point 13 °F
Humidity 53%
Rainfall 0.00 in
Snow Depth Not available.
6:57 AM 5:36 PM
Waxing Crescent, 25% visible
METAR KSUS 122354Z 32008KT 10SM CLR M02/M11 A3042 RMK AO2 SLP313 T10221106 10017 21022 51029

10-Day Weather Forecast

Almanac

Astronomy

Feb. 12, 2016 Rise Set
Actual Time
Civil Twilight
Nautical Twilight
Astronomical Twilight
Moon
Length of Visible Light
Length of Day
Tomorrow will be .
, % of the Moon is Illuminated

Today's Extremes

State Highs State Lows

Community

WunderPhotos

Upload Photos

1,892,444 photos uploaded!

WunderBlog® & News

Nearby

Air Quality

  Air Quality AQ Index Pollutant
Not available.

Snow Depth

Station Depth Elevation

Earthquake Activity

City Distance Mag. Time & Date
Minimum magnitude displayed is 2.5.

Coastal Water Temperatures

Place Temperature

Stations

Nearby Weather Stations

Station Location Temp. Windchill Dew Point Humidity Wind Precip. Elev Updated Type
                   

Watches & Warnings

There are currently no watches in effect.